Another Hard Day at the Office Weather Stats

 
 
 

High monthly outside Temperature, 22.8 , C
Low monthly outside Temperature, -1.0 , C
High yearly outside Temperature, 30.9 , C
Low yearly outside Temperature, -2.2 , C

Low monthly barometer, 1001.1 , mb
High monthly barometer, 1028.0 , mb
Low yearly barometer, 975.0 , mb
High yearly barometer 1041.1 , mb

High wind speed, 25.0 , mph
Time of High wind speed, 21:37 , mph
High monthly wind speed, 47.0 , mph
High yearly wind speed, 55.0 , mph

 

 




3126
                    Temp     Hi    Low   Out    Dew  Wind  Wind   Wind    Hi    Hi   Wind   Heat    THW                Rain    Heat    Cool    In     In    In     In     In   In Air  Wind  Wind    ISS   Arc.
  Date    Time     Out   Temp   Temp   Hum    Pt. Speed   Dir    Run Speed   Dir  Chill  Index  Index   Bar    Rain  Rate    D-D     D-D    Temp   Hum    Dew   Heat    EMC Density  Samp   Tx   Recept  Int.
---------------------------------------------------------------------------------------------------------------------------------------------------------------------------------------------------------------
28/03/20   0:05    6.9    6.9    6.9    66    1.0  11.0     N   0.92  21.0    NE    3.6    6.6    3.2  1021.6  0.00  0.00   0.040   0.000   29.3    24    6.7   27.8   5.05  .0728    116    1    100.0    5 
28/03/20   0:10    6.9    6.9    6.9    66    1.0  12.0     N   1.00  19.0     N    3.3    6.5    2.9  1021.6  0.00  0.00   0.040   0.000   29.3    24    6.7   27.8   5.05  .0728    117    1    100.0    5 
28/03/20   0:15    6.9    6.9    6.8    67    1.2  11.0     N   0.92  18.0     N    3.5    6.6    3.2  1021.6  0.00  0.00   0.040   0.000   29.3    24    6.6   27.8   5.06  .0728    117    1    100.0    5 
28/03/20   0:20    6.8    6.9    6.8    67    1.1  11.0     N   0.92  21.0     N    3.4    6.5    3.1  1021.6  0.00  0.00   0.040   0.000   29.3    24    6.6   27.8   5.06  .0728    116    1    100.0    5 
28/03/20   0:25    6.8    6.9    6.8    67    1.1  10.0     N   0.83  18.0   NNE    3.7    6.5    3.4  1021.6  0.00  0.00   0.040   0.000   29.2    24    6.6   27.7   5.06  .0728    117    1    100.0    5 
28/03/20   0:30    6.8    6.8    6.8    67    1.1  12.0     N   1.00  22.0   NNW    3.1    6.4    2.8  1021.6  0.00  0.00   0.040   0.000   29.2    24    6.6   27.7   5.06  .0728    117    1    100.0    5 
28/03/20   0:35    6.8    6.8    6.8    68    1.3  12.0     N   1.00  19.0   NNE    3.1    6.4    2.8  1021.5  0.00  0.00   0.040   0.000   29.2    24    6.5   27.7   5.06  .0728    117    1    100.0    5 
28/03/20   0:40    6.8    6.8    6.8    68    1.3  12.0     N   1.00  19.0     N    3.1    6.4    2.8  1021.5  0.00  0.00   0.040   0.000   29.2    24    6.5   27.7   5.06  .0728    114    1    100.0    5 
28/03/20   0:45    6.8    6.8    6.8    68    1.3  11.0     N   0.92  20.0     N    3.3    6.4    3.0  1021.5  0.00  0.00   0.040   0.000   29.1    24    6.5   27.7   5.06  .0728    117    1    100.0    5 
28/03/20   0:50    6.8    6.8    6.7    68    1.3  11.0     N   0.92  20.0     N    3.3    6.4    3.0  1021.5  0.00  0.00   0.040   0.000   29.1    24    6.5   27.7   5.06  .0728    116    1    100.0    5 
28/03/20   0:55    6.8    6.8    6.7    68    1.3  12.0     N   1.00  21.0     N    3.1    6.4    2.8  1021.5  0.00  0.00   0.040   0.000   29.1    24    6.5   27.7   5.06  .0728    116    1    100.0    5 
28/03/20   1:00    6.8    6.8    6.7    69    1.5  10.0     N   0.83  18.0     N    3.6    6.5    3.3  1021.6  0.00  0.00   0.040   0.000   29.1    24    6.4   27.6   5.06  .0729    117    1    100.0    5 
28/03/20   1:05    6.7    6.8    6.7    69    1.4  10.0     N   0.83  17.0   NNE    3.6    6.4    3.3  1021.6  0.00  0.00   0.040   0.000   29.0    24    6.4   27.6   5.07  .0729    117    1    100.0    5 
28/03/20   1:10    6.7    6.7    6.6    69    1.4  11.0     N   0.92  18.0   NNE    3.2    6.4    2.9  1021.6  0.00  0.00   0.041   0.000   28.9    24    6.3   27.5   5.07  .0729    117    1    100.0    5 
28/03/20   1:15    6.6    6.7    6.6    70    1.5  10.0     N   0.83  18.0     N    3.4    6.3    3.2  1021.6  0.00  0.00   0.041   0.000   28.9    24    6.3   27.5   5.07  .0729    116    1    100.0    5 
28/03/20   1:20    6.6    6.7    6.6    70    1.5  11.0     N   0.92  19.0   NNE    3.2    6.3    2.9  1021.6  0.00  0.00   0.041   0.000   28.9    24    6.3   27.5   5.07  .0729    116    1    100.0    5 
28/03/20   1:25    6.6    6.6    6.6    70    1.5  11.0     N   0.92  18.0     N    3.2    6.3    2.9  1021.6  0.00  0.00   0.041   0.000   28.9    24    6.3   27.5   5.07  .0729    117    1    100.0    5 
28/03/20   1:30    6.6    6.6    6.6    71    1.7  12.0     N   1.00  20.0     N    2.9    6.3    2.6  1021.6  0.00  0.00   0.041   0.000   28.9    24    6.3   27.4   5.07  .0729    117    1    100.0    5 
28/03/20   1:35    6.6    6.6    6.5    71    1.7  11.0     N   0.92  23.0     N    3.1    6.3    2.8  1021.5  0.00  0.00   0.041   0.000   28.9    24    6.3   27.4   5.07  .0729    116    1    100.0    5 
28/03/20   1:40    6.6    6.6    6.5    71    1.7  10.0     N   0.83  16.0   NNE    3.4    6.3    3.1  1021.5  0.00  0.00   0.041   0.000   28.8    24    6.2   27.4   5.07  .0729    116    1    100.0    5 
28/03/20   1:45    6.5    6.6    6.5    71    1.6  11.0     N   0.92  19.0     N    3.1    6.2    2.8  1021.6  0.00  0.00   0.041   0.000   28.8    24    6.2   27.4   5.07  .0729    116    1    100.0    5 
28/03/20   1:50    6.5    6.6    6.5    72    1.8  13.0     N   1.08  23.0     N    2.6    6.2    2.3  1021.5  0.00  0.00   0.041   0.000   28.8    24    6.2   27.3   5.07  .0729    116    1    100.0    5 
28/03/20   1:55    6.5    6.5    6.4    72    1.8  12.0     N   1.00  21.0     N    2.8    6.2    2.6  1021.5  0.00  0.00   0.041   0.000   28.8    24    6.2   27.3   5.07  .0729    118    1    100.0    5 
28/03/20   2:00    6.4    6.5    6.4    72    1.8  11.0     N   0.92  22.0    NE    3.0    6.2    2.7  1021.5  0.00  0.00   0.041   0.000   28.7    24    6.1   27.3   5.08  .0729    116    1    100.0    5 
28/03/20   2:05    6.4    6.4    6.4    73    2.0  12.0     N   1.00  20.0   ENE    2.8    6.2    2.5  1021.4  0.00  0.00   0.041   0.000   28.7    24    6.1   27.3   5.08  .0729    117    1    100.0    5 
28/03/20   2:10    6.4    6.4    6.4    73    1.9  11.0     N   0.92  17.0   NNW    2.9    6.1    2.7  1021.4  0.00  0.00   0.041   0.000   28.7    24    6.1   27.3   5.08  .0729    117    1    100.0    5 
28/03/20   2:15    6.4    6.4    6.3    73    1.9  11.0     N   0.92  18.0     N    2.9    6.1    2.7  1021.3  0.00  0.00   0.041   0.000   28.7    24    6.1   27.2   5.08  .0730    117    1    100.0    5 
28/03/20   2:20    6.4    6.4    6.3    73    1.9  11.0     N   0.92  22.0     N    2.9    6.1    2.7  1021.3  0.00  0.00   0.041   0.000   28.6    24    6.1   27.2   5.08  .0730    115    1    100.0    5 
28/03/20   2:25    6.3    6.3    6.3    74    2.0  13.0     N   1.08  20.0   NNW    2.4    6.1    2.2  1021.3  0.00  0.00   0.042   0.000   28.6    24    6.1   27.2   5.08  .0730    116    1    100.0    5 
28/03/20   2:30    6.3    6.3    6.3    74    2.0  13.0     N   1.08  25.0     N    2.3    6.1    2.1  1021.3  0.00  0.00   0.042   0.000   28.6    24    6.1   27.2   5.08  .0730    117    1    100.0    5 
28/03/20   2:35    6.3    6.3    6.3    74    2.0  13.0     N   1.08  23.0   NNW    2.3    6.1    2.1  1021.3  0.00  0.00   0.042   0.000   28.6    24    6.0   27.1   5.08  .0730    116    1    100.0    5 
28/03/20   2:40    6.3    6.3    6.3    74    2.0  13.0     N   1.08  25.0   NNE    2.3    6.1    2.1  1021.3  0.00  0.00   0.042   0.000   28.6    24    6.0   27.1   5.08  .0730    117    1    100.0    5 
28/03/20   2:45    6.3    6.3    6.2    74    2.0  13.0     N   1.08  21.0     N    2.3    6.1    2.1  1021.3  0.00  0.00   0.042   0.000   28.5    24    6.0   27.0   5.08  .0730    117    1    100.0    5 
28/03/20   2:50    6.3    6.3    6.2    74    2.0  12.0     N   1.00  19.0     N    2.6    6.1    2.3  1021.3  0.00  0.00   0.042   0.000   28.5    24    6.0   27.0   5.08  .0730    116    1    100.0    5 
28/03/20   2:55    6.2    6.2    6.2    75    2.1  12.0     N   1.00  17.0   NNW    2.5    6.0    2.3  1021.3  0.00  0.00   0.042   0.000   28.4    24    5.9   26.9   5.09  .0730    117    1    100.0    5 
28/03/20   3:00    6.2    6.2    6.2    75    2.1  13.0     N   1.08  22.0     N    2.2    5.9    2.0  1021.4  0.00  0.00   0.042   0.000   28.4    24    5.9   26.9   5.09  .0730    117    1    100.0    5 
28/03/20   3:05    6.2    6.2    6.2    75    2.1  14.0     N   1.17  24.0     N    2.1    5.9    1.8  1021.3  0.00  0.00   0.042   0.000   28.4    24    5.9   26.9   5.09  .0730    117    1    100.0    5 
28/03/20   3:10    6.1    6.2    6.1    75    2.0  13.0     N   1.08  22.0   NNE    2.2    5.9    1.9  1021.3  0.00  0.00   0.042   0.000   28.4    24    5.9   26.9   5.09  .0730    117    1    100.0    5 
28/03/20   3:15    6.1    6.2    6.1    75    2.0  14.0     N   1.17  22.0     N    2.0    5.9    1.8  1021.4  0.00  0.00   0.042   0.000   28.3    24    5.8   26.8   5.09  .0731    117    1    100.0    5 
28/03/20   3:20    6.1    6.2    6.1    75    2.0  13.0     N   1.08  22.0     N    2.2    5.9    1.9  1021.4  0.00  0.00   0.042   0.000   28.3    24    5.8   26.8   5.09  .0730    116    1    100.0    5 
28/03/20   3:25    6.1    6.1    6.1    75    2.0  12.0     N   1.00  21.0   NNE    2.4    5.9    2.2  1021.4  0.00  0.00   0.042   0.000   28.3    24    5.8   26.8   5.09  .0731    116    1    100.0    5 
28/03/20   3:30    6.1    6.1    6.1    75    2.0  13.0     N   1.08  24.0   NNE    2.1    5.8    1.9  1021.4  0.00  0.00   0.043   0.000   28.3    24    5.8   26.8   5.09  .0731    117    1    100.0    5 
28/03/20   3:35    6.1    6.1    6.1    75    2.0  14.0     N   1.17  22.0   NNE    1.9    5.8    1.7  1021.4  0.00  0.00   0.043   0.000   28.2    24    5.7   26.7   5.09  .0731    116    1    100.0    5 
28/03/20   3:40    6.1    6.1    6.1    76    2.1  13.0     N   1.08  21.0   NNW    2.1    5.8    1.9  1021.5  0.00  0.00   0.043   0.000   28.2    24    5.7   26.7   5.09  .0731    116    1    100.0    5 
28/03/20   3:45    6.1    6.1    6.0    76    2.1  13.0     N   1.08  22.0   NNE    2.1    5.8    1.9  1021.4  0.00  0.00   0.043   0.000   28.2    24    5.7   26.7   5.10  .0731    117    1    100.0    5 
28/03/20   3:50    6.1    6.1    6.1    76    2.1  13.0     N   1.08  21.0     N    2.1    5.8    1.9  1021.5  0.00  0.00   0.043   0.000   28.2    24    5.7   26.7   5.10  .0731    115    1    100.0    5 
28/03/20   3:55    6.1    6.1    6.1    76    2.1  12.0     N   1.00  19.0    NE    2.3    5.8    2.1  1021.5  0.00  0.00   0.043   0.000   28.2    24    5.7   26.7   5.10  .0731    117    1    100.0    5 
28/03/20   4:00    6.0    6.1    6.0    76    2.1  12.0     N   1.00  24.0     N    2.3    5.8    2.1  1021.5  0.00  0.00   0.043   0.000   28.2    24    5.7   26.7   5.10  .0731    117    1    100.0    5 
28/03/20   4:05    6.0    6.1    6.0    76    2.1  13.0     N   1.08  21.0     N    2.1    5.8    1.8  1021.6  0.00  0.00   0.043   0.000   28.1    24    5.6   26.6   5.10  .0731    117    1    100.0    5 
28/03/20   4:10    6.0    6.1    6.0    76    2.1  13.0     N   1.08  22.0     N    2.1    5.8    1.8  1021.7  0.00  0.00   0.043   0.000   28.1    24    5.6   26.6   5.10  .0731    117    1    100.0    5 
28/03/20   4:15    6.0    6.1    6.0    76    2.1  12.0     N   1.00  26.0     N    2.3    5.8    2.1  1021.8  0.00  0.00   0.043   0.000   28.1    24    5.6   26.6   5.10  .0731    117    1    100.0    5 
28/03/20   4:20    5.9    6.0    5.9    76    2.0  10.0     N   0.83  19.0    NE    2.7    5.7    2.4  1021.7  0.00  0.00   0.043   0.000   28.1    24    5.6   26.6   5.10  .0732    117    1    100.0    5 
28/03/20   4:25    5.9    6.0    5.9    76    2.0  12.0     N   1.00  21.0    NE    2.2    5.7    1.9  1021.8  0.00  0.00   0.043   0.000   28.1    24    5.6   26.6   5.10  .0732    117    1    100.0    5 
28/03/20   4:30    5.9    5.9    5.9    76    2.0  11.0     N   0.92  17.0    NW    2.4    5.7    2.2  1021.8  0.00  0.00   0.043   0.000   28.0    24    5.5   26.6   5.10  .0732    117    1    100.0    5 
28/03/20   4:35    5.9    5.9    5.9    76    2.0  12.0     N   1.00  19.0   NNE    2.1    5.7    1.9  1021.9  0.00  0.00   0.043   0.000   28.0    24    5.5   26.6   5.10  .0732    116    1    100.0    5 
28/03/20   4:40    5.8    5.9    5.8    76    1.9  12.0     N   1.00  18.0   NNE    2.1    5.6    1.8  1021.9  0.00  0.00   0.043   0.000   28.0    24    5.5   26.6   5.10  .0732    117    1    100.0    5 
28/03/20   4:45    5.8    5.9    5.8    76    1.9  10.0     N   0.83  17.0     N    2.6    5.6    2.3  1022.0  0.00  0.00   0.043   0.000   27.9    24    5.5   26.5   5.10  .0732    115    1    100.0    5 
28/03/20   4:50    5.8    5.9    5.8    77    2.1  10.0     N   0.83  18.0   NNE    2.6    5.6    2.3  1022.0  0.00  0.00   0.043   0.000   27.9    24    5.5   26.5   5.10  .0732    117    1    100.0    5 
28/03/20   4:55    5.8    5.9    5.8    77    2.1  11.0     N   0.92  19.0   NNE    2.3    5.6    2.1  1022.0  0.00  0.00   0.043   0.000   27.9    24    5.5   26.5   5.10  .0732    117    1    100.0    5 
28/03/20   5:00    5.8    5.8    5.8    77    2.1  11.0     N   0.92  19.0    NE    2.2    5.6    2.0  1022.1  0.00  0.00   0.044   0.000   27.9    24    5.4   26.4   5.11  .0732    116    1    100.0    5 
28/03/20   5:05    5.8    5.8    5.8    77    2.1  11.0     N   0.92  20.0     N    2.2    5.6    2.0  1022.1  0.00  0.00   0.044   0.000   27.9    24    5.4   26.4   5.11  .0732    117    1    100.0    5 
28/03/20   5:10    5.8    5.8    5.8    77    2.1  11.0     N   0.92  24.0     N    2.2    5.6    2.0  1022.2  0.00  0.00   0.044   0.000   27.9    24    5.4   26.4   5.11  .0732    118    1    100.0    5 
28/03/20   5:15    5.8    5.8    5.7    77    2.1  11.0     N   0.92  18.0   NNE    2.2    5.6    2.0  1022.2  0.00  0.00   0.044   0.000   27.9    24    5.4   26.4   5.11  .0732    117    1    100.0    5 
28/03/20   5:20    5.8    5.8    5.7    77    2.1  11.0     N   0.92  19.0   NNW    2.2    5.6    2.0  1022.3  0.00  0.00   0.044   0.000   27.8    24    5.4   26.4   5.11  .0733    115    1    100.0    5 
28/03/20   5:25    5.7    5.8    5.7    77    2.0  11.0     N   0.92  20.0     N    2.2    5.5    1.9  1022.2  0.00  0.00   0.044   0.000   27.8    24    5.4   26.4   5.11  .0733    114    1    100.0    5 
28/03/20   5:30    5.7    5.7    5.7    77    2.0  10.0     N   0.83  18.0   NNE    2.4    5.5    2.2  1022.4  0.00  0.00   0.044   0.000   27.8    24    5.4   26.4   5.11  .0733    117    1    100.0    5 
28/03/20   5:35    5.7    5.7    5.7    76    1.8   9.0     N   0.75  18.0   NNE    2.7    5.5    2.4  1022.4  0.00  0.00   0.044   0.000   27.8    24    5.4   26.3   5.11  .0733    116    1    100.0    5 
28/03/20   5:40    5.7    5.7    5.7    76    1.8   9.0     N   0.75  14.0   NNE    2.6    5.4    2.4  1022.4  0.00  0.00   0.044   0.000   27.8    24    5.4   26.3   5.11  .0733    117    1    100.0    5 
28/03/20   5:45    5.7    5.7    5.7    76    1.8  10.0     N   0.83  15.0   NNW    2.3    5.4    2.1  1022.5  0.00  0.00   0.044   0.000   27.8    24    5.4   26.3   5.11  .0733    116    1    100.0    5 
28/03/20   5:50    5.7    5.7    5.7    76    1.8   9.0     N   0.75  18.0   NNE    2.6    5.4    2.4  1022.5  0.00  0.00   0.044   0.000   27.8    24    5.4   26.3   5.11  .0733    116    1    100.0    5 
28/03/20   5:55    5.7    5.7    5.7    76    1.8  10.0     N   0.83  19.0     N    2.3    5.4    2.1  1022.6  0.00  0.00   0.044   0.000   27.7    24    5.3   26.3   5.11  .0733    116    1    100.0    5 
28/03/20   6:00    5.7    5.7    5.6    76    1.8  10.0     N   0.83  16.0     N    2.3    5.4    2.1  1022.6  0.00  0.00   0.044   0.000   27.7    24    5.3   26.3   5.11  .0733    117    1    100.0    5 
28/03/20   6:05    5.7    5.7    5.7    76    1.8  10.0     N   0.83  16.0   NNE    2.4    5.5    2.2  1022.6  0.00  0.00   0.044   0.000   27.7    24    5.3   26.3   5.11  .0733    116    1    100.0    5 
28/03/20   6:10    5.7    5.7    5.7    76    1.8   8.0     N   0.67  16.0     N    2.9    5.4    2.7  1022.7  0.00  0.00   0.044   0.000   27.7    24    5.3   26.3   5.11  .0733    118    1    100.0    5 
28/03/20   6:15    5.7    5.7    5.7    76    1.8  10.0     N   0.83  18.0   NNE    2.4    5.5    2.2  1022.7  0.00  0.00   0.044   0.000   27.7    24    5.3   26.3   5.11  .0733    117    1    100.0    5 
28/03/20   6:20    5.7    5.7    5.7    76    1.8   9.0     N   0.75  16.0     N    2.7    5.5    2.4  1022.7  0.00  0.00   0.044   0.000   27.7    24    5.3   26.2   5.11  .0733    117    1    100.0    5 
28/03/20   6:25    5.8    5.8    5.7    76    1.9  10.0     N   0.83  19.0   NNE    2.4    5.6    2.2  1022.8  0.00  0.00   0.044   0.000   27.7    24    5.3   26.2   5.11  .0733    117    1    100.0    5 
28/03/20   6:30    5.8    5.8    5.8    76    1.9   9.0     N   0.75  19.0    NE    2.8    5.6    2.6  1022.8  0.00  0.00   0.043   0.000   27.7    24    5.3   26.2   5.11  .0733    116    1    100.0    5 
28/03/20   6:35    5.8    5.9    5.8    76    1.9  11.0     N   0.92  19.0   NNE    2.3    5.6    2.1  1022.8  0.00  0.00   0.043   0.000   27.7    24    5.3   26.2   5.11  .0733    115    1    100.0    5 
28/03/20   6:40    5.9    5.9    5.9    76    2.0  11.0     N   0.92  19.0    NW    2.4    5.7    2.2  1022.8  0.00  0.00   0.043   0.000   27.7    24    5.3   26.2   5.11  .0733    117    1    100.0    5 
28/03/20   6:45    6.0    6.0    5.9    75    1.9  11.0     N   0.92  21.0     N    2.5    5.8    2.3  1022.9  0.00  0.00   0.043   0.000   27.6    24    5.2   26.2   5.12  .0734    117    1    100.0    5 
28/03/20   6:50    6.1    6.1    6.0    75    2.0  11.0     N   0.92  18.0   NNE    2.6    5.8    2.3  1022.9  0.00  0.00   0.043   0.000   27.6    24    5.2   26.2   5.12  .0734    117    1    100.0    5 
28/03/20   6:55    6.2    6.2    6.1    75    2.1  11.0     N   0.92  18.0   NNE    2.7    5.9    2.4  1022.9  0.00  0.00   0.042   0.000   27.6    24    5.2   26.2   5.12  .0734    115    1    100.0    5 
28/03/20   7:00    6.2    6.2    6.1    75    2.1  12.0     N   1.00  20.0     N    2.4    5.9    2.2  1022.9  0.00  0.00   0.042   0.000   27.6    24    5.2   26.2   5.12  .0734    117    1    100.0    5 
28/03/20   7:05    6.3    6.3    6.2    75    2.2  12.0     N   1.00  23.0     N    2.6    6.1    2.3  1022.9  0.00  0.00   0.042   0.000   27.6    24    5.2   26.2   5.12  .0734    117    1    100.0    5 
28/03/20   7:10    6.3    6.3    6.3    75    2.2  12.0     N   1.00  20.0     N    2.6    6.1    2.4  1022.9  0.00  0.00   0.042   0.000   27.6    24    5.2   26.1   5.12  .0734    116    1    100.0    5 
28/03/20   7:15    6.4    6.4    6.3    74    2.1  11.0     N   0.92  20.0   NNE    3.0    6.2    2.8  1022.9  0.00  0.00   0.041   0.000   27.6    24    5.2   26.1   5.12  .0734    118    1    100.0    5 
28/03/20   7:20    6.5    6.5    6.4    74    2.2  11.0     N   0.92  21.0   NNE    3.1    6.3    2.8  1023.0  0.00  0.00   0.041   0.000   27.6    24    5.2   26.1   5.12  .0734    116    1    100.0    5 
28/03/20   7:25    6.6    6.6    6.5    74    2.3  12.0   NNE   1.00  21.0   NNE    2.9    6.4    2.7  1022.9  0.00  0.00   0.041   0.000   27.6    24    5.2   26.1   5.12  .0734    116    1    100.0    5 
28/03/20   7:30    6.7    6.7    6.6    74    2.4  11.0     N   0.92  20.0    NW    3.2    6.4    3.0  1022.9  0.00  0.00   0.041   0.000   27.6    24    5.2   26.1   5.12  .0734    117    1    100.0    5 
28/03/20   7:35    6.8    6.8    6.7    74    2.5  11.0     N   0.92  21.0   NNE    3.3    6.6    3.1  1023.0  0.00  0.00   0.040   0.000   27.6    24    5.2   26.1   5.12  .0734    116    1    100.0    5 
28/03/20   7:40    6.9    6.9    6.8    74    2.6  11.0     N   0.92  22.0    NE    3.5    6.7    3.3  1023.0  0.00  0.00   0.040   0.000   27.5    24    5.1   26.0   5.12  .0734    116    1    100.0    5 
28/03/20   7:45    7.0    7.0    6.9    74    2.7  11.0     N   0.92  21.0   NNE    3.6    6.8    3.4  1023.1  0.00  0.00   0.039   0.000   27.6    24    5.2   26.1   5.12  .0734    116    1    100.0    5 
28/03/20   7:50    7.1    7.1    7.0    73    2.6  13.0   NNE   1.08  24.0   NNE    3.3    6.9    3.1  1022.9  0.00  0.00   0.039   0.000   27.6    24    5.2   26.1   5.12  .0734    117    1    100.0    5 
28/03/20   7:55    7.2    7.2    7.1    73    2.7  13.0     N   1.08  24.0     N    3.4    7.0    3.2  1023.0  0.00  0.00   0.039   0.000   27.6    24    5.2   26.1   5.12  .0734    117    1    100.0    5 
28/03/20   8:00    7.3    7.3    7.2    73    2.8  13.0     N   1.08  24.0   ENE    3.6    7.1    3.3  1023.1  0.00  0.00   0.038   0.000   27.6    25    5.8   26.2   5.32  .0734    117    1    100.0    5 
28/03/20   8:05    7.4    7.5    7.3    73    2.9  13.0     N   1.08  27.0    NE    3.7    7.2    3.4  1023.2  0.00  0.00   0.038   0.000   27.6    24    5.2   26.1   5.12  .0734    116    1    100.0    5 
28/03/20   8:10    7.6    7.6    7.5    72    2.8  14.0     N   1.17  25.0   NNE    3.6    7.3    3.3  1023.2  0.00  0.00   0.037   0.000   27.6    25    5.8   26.2   5.32  .0734    117    1    100.0    5 
28/03/20   8:15    7.7    7.7    7.6    72    3.0  12.0     N   1.00  22.0     N    4.2    7.4    3.9  1023.2  0.00  0.00   0.037   0.000   27.6    25    5.8   26.2   5.32  .0734    117    1    100.0    5 
28/03/20   8:20    7.8    7.9    7.7    71    2.9  14.0     N   1.17  24.0    NE    3.9    7.6    3.7  1023.2  0.00  0.00   0.036   0.000   27.6    25    5.8   26.2   5.32  .0734    118    1    100.0    5 
28/03/20   8:25    8.1    8.1    7.8    71    3.1  11.0   NNE   0.92  20.0   NNE    4.9    7.8    4.6  1023.3  0.00  0.00   0.036   0.000   27.7    25    5.8   26.3   5.31  .0733    116    1    100.0    5 
28/03/20   8:30    8.1    8.1    8.1    70    3.0  14.0   NNE   1.17  28.0   ENE    4.3    7.8    4.0  1023.3  0.00  0.00   0.035   0.000   27.7    25    5.8   26.3   5.31  .0733    116    1    100.0    5 
28/03/20   8:35    8.3    8.3    8.1    70    3.1  12.0   NNE   1.00  27.0     E    4.9    8.0    4.6  1023.3  0.00  0.00   0.035   0.000   27.7    24    5.3   26.2   5.11  .0734    116    1    100.0    5 
28/03/20   8:40    8.3    8.4    8.3    69    3.0  14.0    NE   1.17  25.0    NE    4.5    8.1    4.2  1023.3  0.00  0.00   0.035   0.000   27.7    24    5.3   26.3   5.11  .0734    117    1    100.0    5 
28/03/20   8:45    8.5    8.5    8.3    69    3.1  13.0   NNE   1.08  21.0    NE    4.9    8.2    4.6  1023.4  0.00  0.00   0.034   0.000   27.7    24    5.3   26.3   5.11  .0734    117    1    100.0    5 
28/03/20   8:50    8.7    8.7    8.4    67    2.9  15.0   NNE   1.25  32.0   NNE    4.7    8.3    4.4  1023.5  0.00  0.00   0.034   0.000   27.8    24    5.4   26.3   5.11  .0734    117    1    100.0    5 
28/03/20   8:55    8.8    8.8    8.7    66    2.8  13.0   NNE   1.08  31.0    NE    5.2    8.4    4.8  1023.5  0.00  0.00   0.033   0.000   27.8    24    5.4   26.3   5.11  .0734    117    1    100.0    5 
28/03/20   9:00    9.0    9.0    8.8    66    3.0  13.0   NNE   1.08  29.0    NE    5.4    8.7    5.1  1023.5  0.00  0.00   0.032   0.000   27.8    24    5.4   26.4   5.11  .0733    117    1    100.0    5 
28/03/20   9:05    9.1    9.1    9.0    64    2.7  14.0   NNE   1.17  27.0   ENE    5.4    8.7    5.0  1023.6  0.00  0.00   0.032   0.000   27.8    24    5.4   26.4   5.11  .0734    117    1    100.0    5 
28/03/20   9:10    9.3    9.3    9.1    64    2.8  12.0    NE   1.00  26.0   NNE    6.0    8.9    5.6  1023.7  0.00  0.00   0.031   0.000   27.8    24    5.4   26.4   5.11  .0734    117    1    100.0    5 
28/03/20   9:15    9.4    9.4    9.3    64    2.9  15.0    NE   1.25  24.0    NE    5.6    9.1    5.2  1023.7  0.00  0.00   0.031   0.000   27.9    24    5.4   26.4   5.11  .0733    117    1    100.0    5 
28/03/20   9:20    9.6    9.6    9.4    63    2.9  13.0    NE   1.08  24.0    NE    6.1    9.2    5.7  1023.8  0.00  0.00   0.030   0.000   27.9    24    5.5   26.5   5.10  .0733    116    1    100.0    5 
28/03/20   9:25    9.7    9.7    9.6    62    2.7  14.0    NE   1.17  25.0     E    6.0    9.3    5.6  1023.8  0.00  0.00   0.030   0.000   28.0    25    6.1   26.6   5.30  .0733    118    1    100.0    5 
28/03/20   9:30    9.8    9.8    9.7    61    2.7  15.0   NNE   1.25  29.0   ESE    6.1    9.4    5.6  1023.9  0.00  0.00   0.030   0.000   28.1    25    6.2   26.6   5.30  .0733    115    1    100.0    5 
28/03/20   9:35   10.1   10.1    9.8    60    2.7  14.0   NNE   1.17  26.0   ENE    6.5    9.7    6.1  1023.8  0.00  0.00   0.029   0.000   28.1    25    6.2   26.7   5.30  .0733    115    1    100.0    5 
28/03/20   9:40   10.2   10.2   10.1    59    2.5  14.0    NE   1.17  31.0     E    6.6    9.7    6.1  1023.9  0.00  0.00   0.028   0.000   28.2    25    6.3   26.8   5.29  .0732    117    1    100.0    5 
28/03/20   9:45   10.4   10.4   10.2    58    2.5  13.0    NE   1.08  27.0   ENE    7.1    9.9    6.6  1023.9  0.00  0.00   0.028   0.000   28.3    25    6.4   26.8   5.29  .0732    117    1    100.0    5 
28/03/20   9:50   10.5   10.5   10.4    58    2.6  14.0    NE   1.17  25.0   ENE    7.0    9.9    6.4  1023.8  0.00  0.00   0.027   0.000   28.4    25    6.5   26.9   5.29  .0732    116    1    100.0    5 
28/03/20   9:55   10.7   10.7   10.5    58    2.8  12.0   NNE   1.00  31.0   ENE    7.7   10.2    7.1  1023.9  0.00  0.00   0.026   0.000   28.5    25    6.6   27.1   5.28  .0732    117    1    100.0    5 
28/03/20  10:00   10.8   10.9   10.7    56    2.4  15.0   NNE   1.25  28.0   ENE    7.2   10.2    6.6  1023.9  0.00  0.00   0.026   0.000   28.6    25    6.6   27.2   5.28  .0731    117    1    100.0    5 
28/03/20  10:05   11.0   11.0   10.8    56    2.6  14.0    NE   1.17  27.0   ENE    7.6   10.4    6.9  1024.1  0.00  0.00   0.025   0.000   28.7    25    6.7   27.3   5.28  .0731    117    1    100.0    5 
28/03/20  10:10   11.2   11.2   11.0    56    2.7  13.0   NNE   1.08  22.0   NNE    7.9   10.5    7.3  1024.1  0.00  0.00   0.025   0.000   28.8    25    6.8   27.4   5.27  .0731    117    1    100.0    5 
28/03/20  10:15   11.3   11.3   11.2    55    2.6  12.0    NE   1.00  22.0    NE    8.3   10.6    7.6  1024.2  0.00  0.00   0.024   0.000   28.8    25    6.8   27.4   5.27  .0731    117    1    100.0    5 
28/03/20  10:20   11.4   11.4   11.3    54    2.5  14.0   NNE   1.17  22.0    NE    8.1   10.7    7.3  1024.3  0.00  0.00   0.024   0.000   28.9    25    6.9   27.5   5.27  .0731    117    1    100.0    5 
28/03/20  10:25   11.4   11.4   11.3    54    2.4  15.0    NE   1.25  26.0     E    7.8   10.6    7.1  1024.3  0.00  0.00   0.024   0.000   29.0    25    7.0   27.6   5.27  .0730    117    1    100.0    5 
28/03/20  10:30   11.5   11.5   11.4    54    2.5  14.0    NE   1.17  23.0     E    8.1   10.7    7.3  1024.5  0.00  0.00   0.024   0.000   29.1    25    7.0   27.7   5.26  .0730    116    1    100.0    5 
28/03/20  10:35   11.5   11.5   11.4    54    2.5  16.0   NNE   1.33  24.0    NE    7.8   10.7    7.0  1024.5  0.00  0.00   0.024   0.000   29.1    25    7.1   27.7   5.26  .0730    116    1    100.0    5 
28/03/20  10:40   11.7   11.7   11.5    53    2.4  13.0    NE   1.08  22.0     N    8.5   10.8    7.7  1024.6  0.00  0.00   0.023   0.000   29.2    25    7.1   27.7   5.26  .0730    117    1    100.0    5 
28/03/20  10:45   11.8   11.8   11.7    54    2.8  13.0    NE   1.08  24.0     E    8.6   11.0    7.8  1024.7  0.00  0.00   0.023   0.000   29.2    25    7.2   27.8   5.26  .0730    117    1    100.0    5 
28/03/20  10:50   11.7   11.8   11.7    53    2.4  15.0   NNE   1.25  28.0   ENE    8.2   10.9    7.3  1024.6  0.00  0.00   0.023   0.000   29.3    25    7.2   27.8   5.26  .0730    117    1    100.0    5 
28/03/20  10:55   11.8   11.8   11.7    53    2.5  14.0    NE   1.17  24.0    NE    8.4   10.9    7.6  1024.6  0.00  0.00   0.023   0.000   29.3    25    7.3   27.9   5.25  .0730    117    1    100.0    5 
28/03/20  11:00   11.9   11.9   11.8    53    2.7  12.0   NNE   1.00  19.0   NNE    9.1   11.1    8.2  1024.7  0.00  0.00   0.022   0.000   29.4    25    7.3   27.9   5.25  .0730    117    1    100.0    5 
28/03/20  11:05   12.1   12.1   11.9    52    2.5  16.0    NE   1.33  29.0   NNE    8.4   11.2    7.5  1024.7  0.00  0.00   0.022   0.000   29.4    25    7.3   27.9   5.25  .0730    116    1    100.0    5 
28/03/20  11:10   12.3   12.3   12.1    52    2.7  13.0    NE   1.08  27.0     E    9.2   11.4    8.3  1024.8  0.00  0.00   0.021   0.000   29.4    25    7.4   28.0   5.25  .0730    117    1    100.0    5 
28/03/20  11:15   12.2   12.3   12.1    52    2.6  15.0    NE   1.25  26.0   ENE    8.7   11.3    7.8  1024.7  0.00  0.00   0.021   0.000   29.5    25    7.4   28.1   5.25  .0729    117    1    100.0    5 
28/03/20  11:20   12.3   12.3   12.1    53    3.0  15.0   NNE   1.25  29.0     N    8.8   11.5    8.0  1024.7  0.00  0.00   0.021   0.000   29.6    25    7.4   28.1   5.25  .0729    117    1    100.0    5 
28/03/20  11:25   12.3   12.3   12.3    53    3.0  14.0   NNE   1.17  24.0    NE    9.1   11.5    8.2  1024.8  0.00  0.00   0.021   0.000   29.6    25    7.5   28.2   5.24  .0729    117    1    100.0    5 
28/03/20  11:30   12.5   12.5   12.3    51    2.6  13.0    NE   1.08  28.0   ENE    9.4   11.6    8.5  1024.8  0.00  0.00   0.020   0.000   29.6    25    7.5   28.2   5.24  .0729    118    1    100.0    5 
28/03/20  11:35   12.5   12.6   12.4    51    2.6  14.0   NNE   1.17  26.0   ENE    9.3   11.6    8.3  1024.8  0.00  0.00   0.020   0.000   29.7    25    7.5   28.2   5.24  .0729    117    1    100.0    5 
28/03/20  11:40   12.6   12.7   12.5    51    2.7  12.0   NNE   1.00  24.0    NE    9.8   11.7    8.9  1024.8  0.00  0.00   0.020   0.000   29.7    25    7.6   28.3   5.24  .0729    116    1    100.0    5 
28/03/20  11:45   12.8   12.8   12.6    50    2.6  12.0    NE   1.00  23.0     E   10.0   11.8    9.0  1024.8  0.00  0.00   0.019   0.000   29.7    25    7.6   28.3   5.24  .0729    117    1    100.0    5 
28/03/20  11:50   13.0   13.0   12.8    50    2.8  10.0   ENE   0.83  23.0     E   10.9   12.0    9.9  1024.9  0.00  0.00   0.019   0.000   29.8    25    7.6   28.3   5.24  .0729    117    1    100.0    5 
28/03/20  11:55   13.0   13.1   13.0    50    2.8  12.0    NE   1.00  27.0    NE   10.3   12.0    9.3  1024.8  0.00  0.00   0.019   0.000   29.8    25    7.7   28.4   5.24  .0728    117    1    100.0    5 
28/03/20  12:00   13.0   13.0   12.9    49    2.5  13.0    NE   1.08  26.0    NE   10.0   11.9    8.9  1024.9  0.00  0.00   0.019   0.000   29.9    25    7.7   28.4   5.23  .0728    117    1    100.0    5 
28/03/20  12:05   12.8   13.0   12.8    48    2.1  16.0   NNE   1.33  29.0     E    9.3   11.8    8.2  1024.8  0.00  0.00   0.019   0.000   29.9    25    7.8   28.5   5.23  .0728    117    1    100.0    5 
28/03/20  12:10   12.9   12.9   12.8    47    1.9  12.0    NE   1.00  25.0   ENE   10.2   11.8    9.1  1025.0  0.00  0.00   0.019   0.000   30.0    25    7.8   28.6   5.23  .0728    116    1    100.0    5 
28/03/20  12:15   13.0   13.1   12.9    48    2.2  13.0    NE   1.08  29.0     E   10.0   11.9    8.9  1025.0  0.00  0.00   0.019   0.000   30.1    25    7.9   28.6   5.23  .0728    117    1    100.0    5 
28/03/20  12:20   13.2   13.2   13.0    49    2.7  10.0   ENE   0.83  26.0     E   11.2   12.2   10.1  1025.0  0.00  0.00   0.018   0.000   30.1    25    7.9   28.6   5.23  .0728    117    1    100.0    5 
28/03/20  12:25   13.3   13.3   13.2    47    2.2  11.0    NE   0.92  19.0   NNE   10.9   12.1    9.7  1025.1  0.00  0.00   0.018   0.000   30.2    24    7.4   28.7   5.02  .0728    116    1    100.0    5 
28/03/20  12:30   13.2   13.2   13.2    47    2.1  11.0   NNE   0.92  21.0     E   10.8   12.0    9.6  1025.1  0.00  0.00   0.018   0.000   30.2    24    7.4   28.7   5.02  .0728    117    1    100.0    5 
28/03/20  12:35   13.4   13.4   13.2    46    2.0  10.0    NE   0.83  21.0    NE   11.4   12.3   10.2  1025.1  0.00  0.00   0.017   0.000   30.2    24    7.4   28.7   5.02  .0728    118    1    100.0    5 
28/03/20  12:40   13.3   13.6   13.3    47    2.2  13.0    NE   1.08  25.0     N   10.4   12.2    9.2  1025.1  0.00  0.00   0.017   0.000   30.3    24    7.5   28.7   5.02  .0728    117    1    100.0    5 
28/03/20  12:45   13.2   13.4   13.2    46    1.8  14.0    NE   1.17  24.0    NE   10.1   12.1    8.9  1025.2  0.00  0.00   0.018   0.000   30.3    24    7.5   28.7   5.02  .0728    117    1    100.0    5 
28/03/20  12:50   13.3   13.3   13.2    46    1.9  13.0   ENE   1.08  24.0     E   10.3   12.1    9.2  1025.1  0.00  0.00   0.018   0.000   30.3    24    7.5   28.8   5.02  .0728    117    1    100.0    5 
28/03/20  12:55   13.5   13.5   13.2    46    2.1   9.0    NE   0.75  23.0    NE   11.8   12.3   10.7  1025.1  0.00  0.00   0.017   0.000   30.3    24    7.5   28.8   5.02  .0728    116    1    100.0    5 
28/03/20  13:00   13.5   13.6   13.5    45    1.8  12.0    NE   1.00  21.0    NE   10.8   12.3    9.6  1025.1  0.00  0.00   0.017   0.000   30.4    24    7.5   28.8   5.02  .0727    116    1    100.0    5 
28/03/20  13:05   13.5   13.6   13.4    45    1.8  11.0   ENE   0.92  26.0   ENE   11.2   12.3    9.9  1025.2  0.00  0.00   0.017   0.000   30.4    24    7.6   28.9   5.01  .0727    117    1    100.0    5 
28/03/20  13:10   13.7   13.7   13.5    45    2.0   9.0    NE   0.75  20.0   ENE   12.1   12.5   10.9  1025.1  0.00  0.00   0.016   0.000   30.4    24    7.6   28.9   5.01  .0727    117    1    100.0    5 
28/03/20  13:15   13.6   13.8   13.6    45    1.8  13.0   NNE   1.08  26.0   NNE   10.7   12.3    9.4  1025.0  0.00  0.00   0.017   0.000   30.5    24    7.6   28.9   5.01  .0727    117    1    100.0    5 
28/03/20  13:20   13.5   13.6   13.5    45    1.8  13.0    NE   1.08  26.0   ENE   10.6   12.3    9.4  1025.0  0.00  0.00   0.017   0.000   30.6    24    7.7   29.0   5.01  .0727    117    1    100.0    5 
28/03/20  13:25   13.4   13.5   13.3    47    2.3  12.0   NNE   1.00  26.0     E   10.7   12.2    9.6  1025.0  0.00  0.00   0.017   0.000   30.6    24    7.7   29.0   5.01  .0727    115    1    100.0    5 
28/03/20  13:30   13.6   13.6   13.3    45    1.8  12.0    NE   1.00  27.0    NE   10.9   12.3    9.7  1025.3  0.00  0.00   0.017   0.000   30.6    24    7.7   29.0   5.01  .0727    117    1    100.0    5 
28/03/20  13:35   13.4   13.6   13.4    45    1.7  12.0   ENE   1.00  25.0   ENE   10.7   12.2    9.5  1025.2  0.00  0.00   0.017   0.000   30.6    24    7.7   29.0   5.01  .0727    117    1    100.0    5 
28/03/20  13:40   13.4   13.4   13.3    45    1.7  11.0    NE   0.92  19.0    NE   11.0   12.2    9.8  1025.1  0.00  0.00   0.017   0.000   30.6    24    7.7   29.0   5.01  .0727    117    1    100.0    5 
28/03/20  13:45   13.3   13.4   13.3    44    1.3  14.0   NNE   1.17  24.0    NE   10.1   12.1    8.9  1025.1  0.00  0.00   0.018   0.000   30.7    24    7.8   29.1   5.01  .0727    117    1    100.0    5 
28/03/20  13:50   13.2   13.3   13.2    43    0.8  13.0    NE   1.08  24.0     E   10.2   11.9    8.9  1025.1  0.00  0.00   0.018   0.000   30.7    24    7.8   29.1   5.01  .0727    117    1    100.0    5 
28/03/20  13:55   13.3   13.3   13.2    44    1.3  12.0    NE   1.00  24.0     E   10.6   12.1    9.4  1025.2  0.00  0.00   0.018   0.000   30.7    24    7.8   29.1   5.00  .0727    117    1    100.0    5 
28/03/20  14:00   13.3   13.4   13.3    48    2.5  13.0    NE   1.08  23.0   ENE   10.4   12.2    9.3  1025.2  0.00  0.00   0.017   0.000   30.7    24    7.8   29.1   5.00  .0727    116    1    100.0    5 
28/03/20  14:05   13.1   13.3   13.1    51    3.1  15.0   NNE   1.25  24.0    NE    9.7   12.1    8.7  1025.2  0.00  0.00   0.018   0.000   30.7    23    7.2   29.1   4.85  .0727    117    1    100.0    5 
28/03/20  14:10   12.9   13.1   12.9    50    2.8  14.0    NE   1.17  24.0    NE    9.7   11.9    8.7  1025.3  0.00  0.00   0.019   0.000   30.7    23    7.2   29.1   4.85  .0727    117    1    100.0    5 
28/03/20  14:15   12.9   13.0   12.9    48    2.1  15.0   NNE   1.25  25.0    NE    9.5   11.8    8.4  1025.4  0.00  0.00   0.019   0.000   30.8    23    7.3   29.1   4.85  .0727    117    1    100.0    5 
28/03/20  14:20   12.8   12.9   12.8    47    1.8  15.0   ENE   1.25  31.0     E    9.4   11.7    8.3  1025.3  0.00  0.00   0.019   0.000   30.8    23    7.3   29.1   4.85  .0727    117    1    100.0    5 
28/03/20  14:25   12.9   12.9   12.8    48    2.1  12.0   ENE   1.00  30.0     E   10.1   11.8    9.1  1025.4  0.00  0.00   0.019   0.000   30.8    23    7.3   29.1   4.85  .0727    117    1    100.0    5 
28/03/20  14:30   12.8   12.9   12.8    50    2.7  12.0    NE   1.00  23.0    NE   10.1   11.8    9.1  1025.4  0.00  0.00   0.019   0.000   30.8    23    7.3   29.1   4.85  .0727    117    1    100.0    5 
28/03/20  14:35   12.6   12.8   12.6    54    3.5  14.0   NNE   1.17  26.0    NE    9.3   11.7    8.5  1025.5  0.00  0.00   0.020   0.000   30.8    23    7.3   29.1   4.85  .0727    117    1    100.0    5 
28/03/20  14:40   12.4   12.6   12.4    55    3.6  15.0   NNE   1.25  28.0   NNE    8.9   11.6    8.2  1025.6  0.00  0.00   0.021   0.000   30.8    23    7.3   29.1   4.85  .0727    118    1    100.0    5 
28/03/20  14:45   12.3   12.4   12.3    56    3.7  14.0   NNE   1.17  25.0   ENE    9.0   11.5    8.2  1025.7  0.00  0.00   0.021   0.000   30.8    23    7.3   29.1   4.85  .0727    117    1    100.0    5 
28/03/20  14:50   12.1   12.3   12.1    58    4.0  13.0   NNE   1.08  28.0   NNE    8.9   11.3    8.2  1025.7  0.00  0.00   0.022   0.000   30.8    23    7.3   29.1   4.85  .0727    116    1    100.0    5 
28/03/20  14:55   11.6   12.1   11.6    59    3.8  14.0   NNE   1.17  25.0   NNE    8.2   10.9    7.6  1025.7  0.00  0.00   0.024   0.000   30.8    23    7.3   29.1   4.85  .0727    117    1    100.0    5 
28/03/20  15:00   11.5   11.6   11.5    60    4.0  14.0   NNE   1.17  24.0   ENE    8.1   10.9    7.5  1025.8  0.00  0.00   0.024   0.000   30.8    23    7.3   29.1   4.85  .0727    117    1    100.0    5 
28/03/20  15:05   11.2   11.6   11.2    60    3.7  15.0   NNE   1.25  31.0   NNE    7.6   10.6    7.0  1026.0  0.00  0.00   0.025   0.000   30.8    23    7.3   29.1   4.85  .0727    115    1    100.0    5 
28/03/20  15:10   10.9   11.2   10.9    61    3.7  14.0   NNE   1.17  24.0   ENE    7.4   10.4    6.9  1026.0  0.00  0.00   0.026   0.000   30.8    23    7.3   29.1   4.85  .0727    117    1    100.0    5 
28/03/20  15:15   10.8   10.9   10.8    61    3.6  11.0    NE   0.92  26.0   ENE    8.1   10.3    7.6  1026.0  0.00  0.00   0.026   0.000   30.8    23    7.3   29.1   4.85  .0727    117    1    100.0    5 
28/03/20  15:20   10.8   10.8   10.8    61    3.6  12.0    NE   1.00  21.0   NNE    7.7   10.3    7.2  1026.1  0.00  0.00   0.026   0.000   30.8    24    7.9   29.1   5.00  .0727    116    1    100.0    5 
28/03/20  15:25   10.9   10.9   10.8    61    3.7  11.0   NNE   0.92  24.0   ENE    8.1   10.4    7.6  1026.1  0.00  0.00   0.026   0.000   30.8    24    7.9   29.1   5.00  .0727    117    1    100.0    5 
28/03/20  15:30   10.8   10.9   10.7    60    3.3  13.0   NNE   1.08  23.0     E    7.5   10.3    7.0  1026.0  0.00  0.00   0.026   0.000   30.8    24    7.9   29.2   5.00  .0727    117    1    100.0    5 
28/03/20  15:35   10.7   10.8   10.7    60    3.2  15.0    NE   1.25  27.0     E    6.9   10.2    6.4  1025.9  0.00  0.00   0.027   0.000   30.8    24    7.9   29.2   5.00  .0727    117    1    100.0    5 
28/03/20  15:40   10.7   10.7   10.7    61    3.4  12.0   NNE   1.00  25.0   NNE    7.6   10.2    7.1  1026.0  0.00  0.00   0.027   0.000   30.8    23    7.3   29.1   4.85  .0727    117    1    100.0    5 
28/03/20  15:45   10.7   10.7   10.7    60    3.2  13.0   NNE   1.08  28.0   ENE    7.3   10.2    6.8  1026.0  0.00  0.00   0.027   0.000   30.9    23    7.3   29.1   4.85  .0727    118    1    100.0    5 
28/03/20  15:50   10.8   10.8   10.7    61    3.6  11.0   NNE   0.92  27.0     N    8.0   10.3    7.5  1026.0  0.00  0.00   0.026   0.000   30.8    23    7.3   29.1   4.85  .0727    117    1    100.0    5 
28/03/20  15:55   10.7   10.8   10.7    61    3.5  13.0   NNE   1.08  25.0   NNE    7.4   10.2    6.9  1026.0  0.00  0.00   0.026   0.000   30.9    23    7.3   29.1   4.85  .0727    117    1    100.0    5 
28/03/20  16:00   10.7   10.7   10.7    61    3.4  13.0   NNE   1.08  23.0    NE    7.3   10.2    6.8  1025.8  0.00  0.00   0.027   0.000   30.8    23    7.3   29.1   4.85  .0727    117    1    100.0    5 
28/03/20  16:05   10.7   10.7   10.7    61    3.4  12.0    NE   1.00  22.0    NE    7.6   10.2    7.1  1026.0  0.00  0.00   0.027   0.000   30.8    23    7.3   29.1   4.85  .0727    116    1    100.0    5 
28/03/20  16:10   10.6   10.7   10.6    59    2.9  15.0   NNE   1.25  32.0     E    6.8   10.1    6.3  1025.8  0.00  0.00   0.027   0.000   30.8    23    7.3   29.1   4.85  .0727    117    1    100.0    5 
28/03/20  16:15   10.6   10.6   10.6    59    2.9  12.0    NE   1.00  23.0    NE    7.5   10.1    6.9  1025.9  0.00  0.00   0.027   0.000   30.8    23    7.3   29.1   4.85  .0727    115    1    100.0    5 
28/03/20  16:20   10.7   10.7   10.6    57    2.5  15.0    NE   1.25  31.0    NE    7.1   10.2    6.5  1025.8  0.00  0.00   0.026   0.000   30.8    23    7.3   29.1   4.85  .0727    117    1    100.0    5 
28/03/20  16:25   10.7   10.8   10.7    57    2.5  14.0    NE   1.17  30.0   NNE    7.2   10.2    6.7  1025.8  0.00  0.00   0.026   0.000   30.8    23    7.3   29.1   4.85  .0727    117    1    100.0    5 
28/03/20  16:30   10.7   10.8   10.7    57    2.5  12.0    NE   1.00  27.0   NNE    7.7   10.2    7.1  1025.9  0.00  0.00   0.026   0.000   30.7    23    7.2   29.1   4.85  .0727    117    1    100.0    5 
28/03/20  16:35   10.7   10.8   10.7    58    2.8  12.0    NE   1.00  24.0   NNE    7.7   10.2    7.1  1026.0  0.00  0.00   0.026   0.000   30.7    23    7.2   29.1   4.85  .0727    117    1    100.0    5 
28/03/20  16:40   10.7   10.8   10.7    58    2.8  13.0    NE   1.08  23.0     E    7.4   10.2    6.9  1025.9  0.00  0.00   0.026   0.000   30.7    23    7.2   29.1   4.85  .0727    116    1    100.0    5 
28/03/20  16:45   10.7   10.7   10.6    59    3.0  12.0    NE   1.00  33.0   ENE    7.6   10.1    7.0  1026.1  0.00  0.00   0.027   0.000   30.7    23    7.2   29.0   4.85  .0728    117    1    100.0    5 
28/03/20  16:50   10.4   10.7   10.4    57    2.3  16.0   NNE   1.33  30.0   ENE    6.6    9.9    6.0  1026.1  0.00  0.00   0.027   0.000   30.6    23    7.1   28.9   4.85  .0728    117    1    100.0    5 
28/03/20  16:55   10.3   10.5   10.3    58    2.4  16.0    NE   1.33  34.0    NE    6.4    9.8    5.9  1026.2  0.00  0.00   0.028   0.000   30.6    23    7.1   28.9   4.85  .0728    117    1    100.0    5 
28/03/20  17:00   10.3   10.4   10.3    57    2.2  13.0   NNE   1.08  24.0   NNW    7.0    9.8    6.4  1026.3  0.00  0.00   0.028   0.000   30.6    23    7.1   28.9   4.85  .0728    116    1    100.0    5 
28/03/20  17:05   10.3   10.3   10.3    57    2.2  13.0   NNE   1.08  22.0     E    7.0    9.8    6.4  1026.3  0.00  0.00   0.028   0.000   30.6    23    7.1   28.9   4.85  .0728    117    1    100.0    5 
28/03/20  17:10   10.3   10.3   10.3    57    2.1  15.0    NE   1.25  27.0    NE    6.6    9.7    6.0  1026.3  0.00  0.00   0.028   0.000   30.5    23    7.0   28.9   4.85  .0728    117    1    100.0    5 
28/03/20  17:15   10.3   10.3   10.3    58    2.4  14.0    NE   1.17  26.0    NE    6.7    9.8    6.2  1026.4  0.00  0.00   0.028   0.000   30.5    23    7.0   28.9   4.85  .0728    117    1    100.0    5 
28/03/20  17:20   10.2   10.3   10.2    58    2.3  14.0   NNE   1.17  23.0    NE    6.6    9.7    6.1  1026.5  0.00  0.00   0.028   0.000   30.4    23    7.0   28.8   4.85  .0729    117    1    100.0    5 
28/03/20  17:25   10.1   10.2   10.1    59    2.5  14.0   NNE   1.17  25.0     E    6.5    9.6    6.0  1026.7  0.00  0.00   0.029   0.000   30.4    23    6.9   28.8   4.85  .0729    117    1    100.0    5 
28/03/20  17:30   10.1   10.2   10.1    58    2.2  14.0   NNE   1.17  24.0   NNE    6.4    9.6    5.9  1026.7  0.00  0.00   0.029   0.000   30.3    23    6.9   28.7   4.85  .0729    117    1    100.0    5 
28/03/20  17:35   10.1   10.1   10.1    58    2.2  13.0   NNE   1.08  26.0   ENE    6.7    9.6    6.2  1026.7  0.00  0.00   0.029   0.000   30.3    23    6.9   28.7   4.85  .0729    116    1    100.0    5 
28/03/20  17:40   10.1   10.1   10.1    58    2.2  13.0   NNE   1.08  25.0   NNE    6.7    9.6    6.2  1026.9  0.00  0.00   0.029   0.000   30.3    23    6.9   28.7   4.85  .0729    117    1    100.0    5 
28/03/20  17:45   10.0   10.1   10.0    57    1.9  14.0    NE   1.17  26.0    NE    6.4    9.5    5.9  1026.9  0.00  0.00   0.029   0.000   30.3    23    6.8   28.7   4.85  .0729    117    1    100.0    5 
28/03/20  17:50    9.9   10.0    9.9    57    1.8  14.0   NNE   1.17  24.0   ENE    6.3    9.4    5.8  1026.8  0.00  0.00   0.029   0.000   30.2    23    6.8   28.6   4.85  .0729    118    1    100.0    5 
28/03/20  17:55    9.9    9.9    9.9    56    1.5  14.0    NE   1.17  23.0    NE    6.3    9.3    5.7  1027.0  0.00  0.00   0.029   0.000   30.2    23    6.8   28.6   4.85  .0730    117    1    100.0    5 
28/03/20  18:00    9.8    9.9    9.8    56    1.5  13.0   NNE   1.08  23.0   ENE    6.4    9.3    5.8  1027.1  0.00  0.00   0.030   0.000   30.2    23    6.7   28.6   4.85  .0730    117    1    100.0    5 
28/03/20  18:05    9.8    9.9    9.8    57    1.7  10.0    NE   0.83  22.0   ENE    7.2    9.3    6.7  1027.2  0.00  0.00   0.030   0.000   30.1    23    6.7   28.5   4.85  .0730    116    1    100.0    5 
28/03/20  18:10    9.8    9.8    9.8    56    1.4  12.0    NE   1.00  22.0   ESE    6.6    9.2    6.1  1027.3  0.00  0.00   0.030   0.000   30.1    23    6.7   28.5   4.85  .0730    115    1    100.0    5 
28/03/20  18:15    9.8    9.8    9.8    56    1.4  10.0   NNE   0.83  22.0    NE    7.1    9.2    6.6  1027.4  0.00  0.00   0.030   0.000   30.1    23    6.6   28.5   4.85  .0730    116    1    100.0    5 
28/03/20  18:20    9.8    9.8    9.7    56    1.4  10.0    NE   0.83  22.0   ENE    7.1    9.2    6.6  1027.5  0.00  0.00   0.030   0.000   30.1    23    6.6   28.5   4.85  .0730    117    1    100.0    5 
28/03/20  18:25    9.8    9.8    9.7    56    1.4   8.0    NE   0.67  15.0    NE    7.8    9.2    7.2  1027.5  0.00  0.00   0.030   0.000   30.1    23    6.6   28.5   4.85  .0730    117    1    100.0    5 
28/03/20  18:30    9.7    9.7    9.7    53    0.6  12.0   NNE   1.00  25.0   ENE    6.6    9.1    5.9  1027.7  0.00  0.00   0.030   0.000   30.0    23    6.6   28.4   4.85  .0731    116    1    100.0    5 
28/03/20  18:35    9.8    9.8    9.7    52    0.4  11.0    NE   0.92  23.0    NE    6.8    9.2    6.2  1027.8  0.00  0.00   0.030   0.000   29.9    23    6.6   28.4   4.85  .0731    116    1    100.0    5 
28/03/20  18:40    9.7    9.8    9.7    52    0.3  12.0    NE   1.00  26.0     N    6.4    9.1    5.8  1027.8  0.00  0.00   0.030   0.000   29.9    23    6.6   28.4   4.85  .0731    117    1    100.0    5 
28/03/20  18:45    9.6    9.7    9.6    52    0.2  15.0    NE   1.25  28.0   ENE    5.8    9.0    5.2  1027.9  0.00  0.00   0.030   0.000   29.9    23    6.6   28.4   4.85  .0731    117    1    100.0    5 
28/03/20  18:50    9.5    9.6    9.5    52    0.1  13.0    NE   1.08  25.0   NNE    6.0    8.9    5.4  1028.0  0.00  0.00   0.031   0.000   29.9    23    6.5   28.3   4.85  .0731    115    1    100.0    5 
28/03/20  18:55    9.4    9.5    9.4    52    0.0  13.0    NE   1.08  25.0   NNE    5.9    8.8    5.3  1028.1  0.00  0.00   0.031   0.000   29.8    23    6.5   28.3   4.85  .0731    118    1    100.0    5 
28/03/20  19:00    9.3    9.4    9.3    52   -0.0  14.0   NNE   1.17  26.0     E    5.7    8.7    5.1  1028.2  0.00  0.00   0.031   0.000   29.8    23    6.5   28.3   4.85  .0731    116    1    100.0    5 
28/03/20  19:05    9.2    9.3    9.2    53    0.1  13.0    NE   1.08  26.0   NNE    5.7    8.6    5.1  1028.3  0.00  0.00   0.032   0.000   29.8    23    6.4   28.2   4.85  .0732    116    1    100.0    5 
28/03/20  19:10    9.1    9.3    9.1    53    0.0  12.0   NNE   1.00  22.0   ENE    5.8    8.5    5.2  1028.4  0.00  0.00   0.032   0.000   29.7    23    6.4   28.2   4.85  .0732    115    1    100.0    5 
28/03/20  19:15    9.0    9.2    9.0    54    0.2  11.0   NNE   0.92  22.0   NNE    5.9    8.4    5.4  1028.7  0.00  0.00   0.032   0.000   29.7    23    6.4   28.2   4.85  .0732    117    1    100.0    5 
28/03/20  19:20    8.9    9.0    8.9    54    0.1  12.0    NE   1.00  28.0    NE    5.6    8.4    5.1  1028.8  0.00  0.00   0.033   0.000   29.7    23    6.4   28.2   4.85  .0732    116    1    100.0    5 
28/03/20  19:25    8.8    8.9    8.8    55    0.3  13.0   NNE   1.08  23.0    NE    5.3    8.3    4.7  1028.7  0.00  0.00   0.033   0.000   29.7    23    6.3   28.1   4.85  .0732    117    1    100.0    5 
28/03/20  19:30    8.8    8.8    8.8    55    0.2  13.0    NE   1.08  22.0   ENE    5.2    8.2    4.7  1028.8  0.00  0.00   0.033   0.000   29.6    23    6.3   28.1   4.85  .0733    115    1    100.0    5 
28/03/20  19:35    8.7    8.8    8.7    56    0.4  12.0    NE   1.00  21.0   NNE    5.4    8.2    4.8  1028.8  0.00  0.00   0.033   0.000   29.6    23    6.3   28.1   4.85  .0733    116    1    100.0    5 
28/03/20  19:40    8.7    8.7    8.7    56    0.4  13.0   NNE   1.08  24.0   ENE    5.2    8.2    4.6  1028.9  0.00  0.00   0.033   0.000   29.6    23    6.3   28.1   4.85  .0733    117    1    100.0    5 
28/03/20  19:45    8.7    8.7    8.7    57    0.6  12.0    NE   1.00  21.0   NNE    5.3    8.2    4.8  1029.0  0.00  0.00   0.034   0.000   29.6    24    6.9   28.1   5.04  .0732    117    1    100.0    5 
28/03/20  19:50    8.6    8.7    8.6    58    0.8  12.0    NE   1.00  20.0    NE    5.3    8.1    4.8  1028.9  0.00  0.00   0.034   0.000   29.6    24    6.9   28.1   5.04  .0732    117    1    100.0    5 
28/03/20  19:55    8.6    8.7    8.6    58    0.8  11.0   NNE   0.92  19.0   NNE    5.5    8.1    5.0  1029.0  0.00  0.00   0.034   0.000   29.7    24    6.9   28.2   5.04  .0732    117    1    100.0    5 
28/03/20  20:00    8.5    8.6    8.5    58    0.7  12.0   NNE   1.00  22.0     N    5.1    8.0    4.6  1029.1  0.00  0.00   0.034   0.000   29.7    24    7.0   28.2   5.04  .0732    117    1    100.0    5 
28/03/20  20:05    8.3    8.5    8.3    58    0.5  13.0   NNE   1.08  22.0    NE    4.7    7.8    4.2  1029.1  0.00  0.00   0.035   0.000   29.8    24    7.0   28.3   5.04  .0732    116    1    100.0    5 
28/03/20  20:10    8.2    8.3    8.2    60    0.9  16.0   NNE   1.33  30.0   NNE    3.9    7.7    3.5  1029.2  0.00  0.00   0.035   0.000   29.8    24    7.1   28.3   5.04  .0732    116    1    100.0    5 
28/03/20  20:15    8.0    8.2    8.0    61    0.9  13.0   NNE   1.08  26.0    NE    4.3    7.6    3.9  1029.3  0.00  0.00   0.036   0.000   29.9    24    7.1   28.4   5.03  .0732    117    1    100.0    5 
28/03/20  20:20    7.9    8.0    7.8    62    1.1  12.0   NNE   1.00  20.0   NNE    4.4    7.4    3.9  1029.4  0.00  0.00   0.036   0.000   29.9    24    7.2   28.4   5.03  .0732    117    1    100.0    5 
28/03/20  20:25    7.8    7.8    7.8    63    1.2  15.0   NNE   1.25  28.0    NE    3.7    7.4    3.3  1029.5  0.00  0.00   0.036   0.000   30.0    24    7.2   28.5   5.03  .0732    117    1    100.0    5 
28/03/20  20:30    7.7    7.8    7.7    63    1.1  12.0   NNE   1.00  22.0    NE    4.2    7.3    3.8  1029.5  0.00  0.00   0.037   0.000   30.1    24    7.3   28.6   5.03  .0732    117    1    100.0    5 
28/03/20  20:35    7.7    7.7    7.7    63    1.1  13.0   NNE   1.08  22.0   ENE    3.9    7.3    3.6  1029.6  0.00  0.00   0.037   0.000   30.1    24    7.3   28.6   5.03  .0731    117    1    100.0    5 
28/03/20  20:40    7.6    7.7    7.6    63    1.0  11.0   NNE   0.92  17.0     N    4.3    7.2    3.9  1029.6  0.00  0.00   0.037   0.000   30.1    24    7.3   28.6   5.03  .0731    117    1    100.0    5 
28/03/20  20:45    7.5    7.6    7.5    63    0.9  12.0   NNE   1.00  23.0    NE    4.0    7.1    3.6  1029.7  0.00  0.00   0.038   0.000   30.2    24    7.4   28.7   5.02  .0731    117    1    100.0    5 
28/03/20  20:50    7.4    7.6    7.4    63    0.9  11.0   NNE   0.92  21.0     N    4.2    7.1    3.8  1029.8  0.00  0.00   0.038   0.000   30.2    24    7.4   28.7   5.02  .0731    116    1    100.0    5 
28/03/20  20:55    7.4    7.4    7.4    62    0.6  11.0   NNE   0.92  21.0   ENE    4.1    6.9    3.7  1029.8  0.00  0.00   0.038   0.000   30.2    24    7.4   28.7   5.02  .0731    117    1    100.0    5 
28/03/20  21:00    7.3    7.4    7.3    61    0.3  12.0   NNE   1.00  25.0   NNE    3.8    6.9    3.3  1029.9  0.00  0.00   0.038   0.000   30.3    23    6.8   28.7   4.85  .0731    117    1    100.0    5 
28/03/20  21:05    7.3    7.4    7.3    60    0.1  14.0    NE   1.17  24.0   ENE    3.3    6.9    2.9  1030.0  0.00  0.00   0.038   0.000   30.3    23    6.8   28.7   4.85  .0732    118    1    100.0    5 
28/03/20  21:10    7.2    7.3    7.2    60   -0.0  14.0    NE   1.17  25.0   NNE    3.2    6.8    2.8  1030.1  0.00  0.00   0.039   0.000   30.3    23    6.9   28.7   4.85  .0731    116    1    100.0    5 
28/03/20  21:15    7.2    7.3    7.2    61    0.1  11.0    NE   0.92  20.0    NE    3.8    6.7    3.4  1030.2  0.00  0.00   0.039   0.000   30.3    23    6.8   28.7   4.85  .0732    117    1    100.0    5 
28/03/20  21:20    7.1    7.2    7.1    61    0.0  10.0   NNE   0.83  20.0    NE    3.9    6.6    3.5  1030.3  0.00  0.00   0.039   0.000   30.3    23    6.8   28.7   4.85  .0732    117    1    100.0    5 
28/03/20  21:25    7.1    7.1    7.0    62    0.3   8.0   NNE   0.67  14.0    NE    4.6    6.6    4.1  1030.4  0.00  0.00   0.039   0.000   30.3    23    6.8   28.7   4.85  .0732    116    1    100.0    5 
28/03/20  21:30    6.9    7.1    6.9    63    0.3   8.0   NNE   0.67  16.0   NNE    4.4    6.5    4.0  1030.4  0.00  0.00   0.040   0.000   30.3    23    6.8   28.7   4.85  .0732    117    1    100.0    5 
28/03/20  21:35    6.8    6.9    6.8    63    0.2  12.0   NNE   1.00  18.0    NE    3.1    6.4    2.7  1030.4  0.00  0.00   0.040   0.000   30.2    23    6.8   28.6   4.85  .0732    116    1    100.0    5 
28/03/20  21:40    6.8    6.8    6.7    63    0.2  12.0    NE   1.00  22.0    NE    3.1    6.4    2.7  1030.3  0.00  0.00   0.040   0.000   30.2    23    6.8   28.6   4.85  .0732    117    1    100.0    5 
28/03/20  21:45    6.7    6.8    6.7    63    0.2  11.0   NNE   0.92  19.0   ENE    3.3    6.3    2.9  1030.4  0.00  0.00   0.040   0.000   30.2    23    6.7   28.6   4.85  .0732    117    1    100.0    5 
28/03/20  21:50    6.6    6.7    6.6    64    0.3  10.0    NE   0.83  18.0   ENE    3.4    6.2    3.1  1030.4  0.00  0.00   0.041   0.000   30.2    23    6.7   28.6   4.85  .0732    115    1    100.0    5 
28/03/20  21:55    6.6    6.7    6.6    64    0.2  10.0   NNE   0.83  19.0    NE    3.4    6.2    3.0  1030.5  0.00  0.00   0.041   0.000   30.1    23    6.7   28.5   4.85  .0732    117    1    100.0    5 
28/03/20  22:00    6.5    6.6    6.4    64    0.2  12.0   NNE   1.00  19.0    NE    2.8    6.1    2.4  1030.5  0.00  0.00   0.041   0.000   30.1    23    6.7   28.5   4.85  .0732    116    1    100.0    5 
28/03/20  22:05    6.4    6.5    6.4    64    0.1  10.0    NE   0.83  17.0    NE    3.2    6.1    2.8  1030.6  0.00  0.00   0.041   0.000   30.1    23    6.6   28.5   4.85  .0733    116    1    100.0    5 
28/03/20  22:10    6.3    6.4    6.3    65    0.2  11.0   NNE   0.92  24.0     E    2.8    5.9    2.4  1030.7  0.00  0.00   0.042   0.000   30.0    23    6.6   28.4   4.85  .0733    118    1    100.0    5 
28/03/20  22:15    6.3    6.4    6.3    65    0.2  12.0   NNE   1.00  22.0    SE    2.6    5.9    2.2  1030.8  0.00  0.00   0.042   0.000   30.0    23    6.6   28.4   4.85  .0733    116    1    100.0    5 
28/03/20  22:20    6.3    6.3    6.3    65    0.2  12.0   NNE   1.00  24.0   NNE    2.6    5.9    2.2  1030.7  0.00  0.00   0.042   0.000   29.9    23    6.6   28.4   4.85  .0733    116    1    100.0    5 
28/03/20  22:25    6.3    6.3    6.3    66    0.4  10.0   NNE   0.83  19.0    NW    3.1    5.9    2.7  1030.7  0.00  0.00   0.042   0.000   29.9    23    6.6   28.4   4.85  .0733    117    1    100.0    5 
28/03/20  22:30    6.2    6.3    6.2    66    0.3   9.0    NE   0.75  15.0   NNW    3.2    5.8    2.8  1030.7  0.00  0.00   0.042   0.000   29.9    23    6.5   28.3   4.85  .0733    115    1    100.0    5 
28/03/20  22:35    6.2    6.2    6.2    66    0.3   9.0    NE   0.75  19.0     E    3.2    5.8    2.8  1030.7  0.00  0.00   0.042   0.000   29.8    23    6.5   28.3   4.85  .0733    117    1    100.0    5 
28/03/20  22:40    6.2    6.2    6.1    67    0.5   9.0    NE   0.75  18.0   ENE    3.2    5.8    2.8  1030.8  0.00  0.00   0.042   0.000   29.8    23    6.4   28.2   4.85  .0733    117    1    100.0    5 
28/03/20  22:45    6.2    6.2    6.1    67    0.5   9.0    NE   0.75  19.0   NNE    3.2    5.8    2.8  1030.9  0.00  0.00   0.042   0.000   29.8    23    6.4   28.2   4.85  .0734    116    1    100.0    5 
28/03/20  22:50    6.2    6.2    6.1    68    0.7   8.0   NNE   0.67  12.0    NE    3.5    5.8    3.2  1031.0  0.00  0.00   0.042   0.000   29.7    23    6.4   28.2   4.85  .0734    114    1    100.0    5 
28/03/20  22:55    6.1    6.2    6.1    68    0.6   9.0   NNE   0.75  18.0    NE    3.1    5.8    2.8  1030.9  0.00  0.00   0.042   0.000   29.7    23    6.4   28.2   4.85  .0734    117    1    100.0    5 
28/03/20  23:00    6.2    6.2    6.1    68    0.7  11.0   NNE   0.92  19.0   ENE    2.7    5.8    2.3  1031.0  0.00  0.00   0.042   0.000   29.7    23    6.3   28.1   4.85  .0734    117    1    100.0    5 
28/03/20  23:05    6.2    6.2    6.1    68    0.7  10.0    NE   0.83  20.0    NE    2.9    5.8    2.6  1031.1  0.00  0.00   0.042   0.000   29.7    23    6.3   28.1   4.85  .0734    116    1    100.0    5 
28/03/20  23:10    6.2    6.2    6.1    68    0.7   9.0   NNE   0.75  19.0    NE    3.2    5.8    2.8  1031.1  0.00  0.00   0.042   0.000   29.6    23    6.3   28.1   4.85  .0734    116    1    100.0    5 
28/03/20  23:15    6.1    6.2    6.1    69    0.8  11.0   NNE   0.92  23.0     E    2.6    5.8    2.3  1031.1  0.00  0.00   0.042   0.000   29.6    23    6.3   28.1   4.85  .0734    117    1    100.0    5 
28/03/20  23:20    6.1    6.2    6.1    69    0.8  10.0    NE   0.83  16.0   ENE    2.8    5.7    2.4  1031.2  0.00  0.00   0.043   0.000   29.6    23    6.2   28.0   4.85  .0734    117    1    100.0    5 
28/03/20  23:25    6.0    6.1    6.0    69    0.7   9.0   NNE   0.75  17.0   NNE    3.0    5.7    2.7  1031.2  0.00  0.00   0.043   0.000   29.6    23    6.2   28.0   4.85  .0734    117    1    100.0    5 
28/03/20  23:30    5.9    6.0    5.9    69    0.7  10.0   NNE   0.83  18.0   ENE    2.7    5.6    2.3  1031.2  0.00  0.00   0.043   0.000   29.5    23    6.2   27.9   4.85  .0735    116    1    100.0    5 
28/03/20  23:35    5.8    5.9    5.8    70    0.8  11.0    NE   0.92  19.0   NNE    2.3    5.5    1.9  1031.3  0.00  0.00   0.043   0.000   29.5    23    6.2   27.9   4.85  .0735    117    1    100.0    5 
28/03/20  23:40    5.8    5.9    5.8    70    0.8  13.0    NE   1.08  23.0   NNE    1.8    5.5    1.5  1031.3  0.00  0.00   0.043   0.000   29.4    23    6.1   27.9   4.85  .0735    116    1    100.0    5 
28/03/20  23:45    5.8    5.9    5.8    70    0.8  12.0   NNE   1.00  25.0    NE    2.1    5.5    1.7  1031.4  0.00  0.00   0.043   0.000   29.4    23    6.1   27.9   4.85  .0735    116    1    100.0    5 
28/03/20  23:50    5.8    5.8    5.8    71    0.9  10.0    NE   0.83  20.0    NE    2.4    5.4    2.1  1031.4  0.00  0.00   0.044   0.000   29.4    23    6.1   27.8   4.85  .0735    117    1    100.0    5 
28/03/20  23:55    5.7    5.8    5.7    71    0.9  10.0   NNE   0.83  16.0    NE    2.4    5.4    2.1  1031.5  0.00  0.00   0.044   0.000   29.3    23    6.0   27.8   4.86  .0735    117    1    100.0    5 
29/03/20  00:00    5.7    5.7    5.7    72    1.0   9.0    NE   0.75  18.0     E    2.6    5.4    2.3  1031.5  0.00  0.00   0.044   0.000   29.3    23    6.0   27.8   4.86  .0735    117    1    100.0    5 
29/03/20   0:05    5.7    5.7    5.7    71    0.8   9.0    NE   0.75  16.0   NNE    2.6    5.3    2.3  1031.4  0.00  0.00   0.044   0.000   29.3    23    6.0   27.8   4.86  .0735    115    1    100.0    5 
29/03/20   0:10    5.7    5.7    5.7    72    1.0  10.0    NE   0.83  19.0    NE    2.3    5.4    2.1  1031.5  0.00  0.00   0.044   0.000   29.3    23    6.0   27.7   4.86  .0735    117    1    100.0    5 
29/03/20   0:15    5.7    5.7    5.7    71    0.8  11.0    NE   0.92  27.0   NNE    2.1    5.3    1.7  1031.5  0.00  0.00   0.044   0.000   29.2    23    6.0   27.7   4.87  .0736    117    1    100.0    5 
29/03/20   0:20    5.7    5.7    5.6    71    0.8  11.0   NNE   0.92  21.0    NE    2.1    5.3    1.7  1031.5  0.00  0.00   0.044   0.000   29.2    23    6.0   27.7   4.87  .0736    117    1    100.0    5 
29/03/20   0:25    5.6    5.7    5.6    71    0.8  10.0   NNE   0.83  17.0   NNE    2.3    5.3    1.9  1031.6  0.00  0.00   0.044   0.000   29.2    23    5.9   27.6   4.87  .0736    117    1    100.0    5 
29/03/20   0:30    5.6    5.7    5.6    70    0.6  10.0   NNE   0.83  21.0    NE    2.3    5.3    1.9  1031.6  0.00  0.00   0.044   0.000   29.2    23    5.9   27.6   4.87  .0736    115    1    100.0    5 
29/03/20   0:35    5.6    5.7    5.6    70    0.6  11.0   NNE   0.92  22.0   ENE    2.0    5.3    1.7  1031.7  0.00  0.00   0.044   0.000   29.1    23    5.9   27.6   4.87  .0736    116    1    100.0    5 
29/03/20   0:40    5.6    5.6    5.6    70    0.6  10.0   NNE   0.83  19.0    NE    2.3    5.3    1.9  1031.7  0.00  0.00   0.044   0.000   29.1    23    5.9   27.6   4.87  .0736    118    1    100.0    5 
29/03/20   0:45    5.7    5.7    5.6    70    0.6  11.0   NNE   0.92  22.0     E    2.1    5.3    1.7  1031.7  0.00  0.00   0.044   0.000   29.1    23    5.9   27.6   4.87  .0736    117    1    100.0    5 
29/03/20   0:50    5.7    5.7    5.6    71    0.8  10.0    NE   0.83  18.0    NE    2.3    5.3    2.0  1031.8  0.00  0.00   0.044   0.000   29.1    23    5.8   27.6   4.88  .0736    116    1    100.0    5 
29/03/20   0:55    5.7    5.7    5.7    70    0.6   9.0   NNE   0.75  17.0   ESE    2.6    5.3    2.3  1031.8  0.00  0.00   0.044   0.000   29.1    23    5.8   27.6   4.88  .0736    117    1    100.0    5 
29/03/20   1:00    5.7    5.7    5.7    70    0.6  10.0   NNE   0.83  17.0   ENE    2.3    5.3    2.0  1031.9  0.00  0.00   0.044   0.000   29.0    23    5.8   27.5   4.88  .0736    117    1    100.0    5 
29/03/20   1:05    5.6    5.7    5.6    70    0.6  10.0   NNE   0.83  21.0     E    2.3    5.3    1.9  1031.8  0.00  0.00   0.044   0.000   28.9    23    5.7   27.4   4.89  .0737    117    1    100.0    5 
29/03/20   1:10    5.6    5.6    5.6    70    0.6  11.0    NE   0.92  24.0    NE    2.0    5.3    1.7  1032.0  0.00  0.00   0.044   0.000   28.9    23    5.7   27.4   4.89  .0737    117    1    100.0    5 
29/03/20   1:15    5.6    5.6    5.6    70    0.5  10.0   NNE   0.83  20.0   ENE    2.2    5.2    1.9  1032.0  0.00  0.00   0.044   0.000   28.9    23    5.7   27.4   4.89  .0737    117    1    100.0    5 
29/03/20   1:20    5.6    5.6    5.5    69    0.3  12.0   NNE   1.00  19.0    NE    1.7    5.2    1.4  1032.0  0.00  0.00   0.044   0.000   28.9    23    5.7   27.4   4.89  .0737    117    1    100.0    5 
29/03/20   1:25    5.5    5.6    5.5    69    0.3  12.0   NNE   1.00  23.0    NE    1.7    5.2    1.3  1031.9  0.00  0.00   0.045   0.000   28.8    23    5.6   27.3   4.89  .0737    116    1    100.0    5 
29/03/20   1:30    5.5    5.6    5.4    69    0.3  11.0   NNE   0.92  22.0    NE    1.9    5.2    1.6  1031.9  0.00  0.00   0.045   0.000   28.8    23    5.6   27.3   4.89  .0737    117    1    100.0    5 
29/03/20   1:35    5.4    5.5    5.4    69    0.2   9.0    NE   0.75  16.0    NE    2.3    5.1    1.9  1032.0  0.00  0.00   0.045   0.000   28.8    23    5.6   27.3   4.90  .0737    117    1    100.0    5 
29/03/20   1:40    5.3    5.4    5.3    69    0.1  11.0   NNE   0.92  20.0   ENE    1.7    5.0    1.4  1032.0  0.00  0.00   0.045   0.000   28.8    23    5.6   27.3   4.90  .0737    117    1    100.0    5 
29/03/20   1:45    5.3    5.3    5.3    69    0.0  10.0    NE   0.83  18.0    NE    1.9    4.9    1.6  1032.1  0.00  0.00   0.045   0.000   28.7    23    5.5   27.2   4.90  .0737    118    1    100.0    5 
29/03/20   1:50    5.2    5.3    5.2    70    0.2   9.0    NE   0.75  18.0   NNE    2.1    4.9    1.8  1032.1  0.00  0.00   0.046   0.000   28.7    23    5.5   27.2   4.90  .0737    116    1    100.0    5 
29/03/20   1:55    5.2    5.2    5.2    70    0.2  11.0   NNE   0.92  21.0    NE    1.6    4.9    1.2  1032.0  0.00  0.00   0.046   0.000   28.7    23    5.5   27.2   4.91  .0738    117    1    100.0    5 
29/03/20   3:00    5.2    5.2    5.2    69   -0.0  12.0   NNE   1.00  20.0    NE    1.3    4.9    1.0  1032.1  0.00  0.00   0.046   0.000   28.7    23    5.5   27.2   4.91  .0738    117    1    100.0    5 
29/03/20   3:05    5.2    5.2    5.1    69   -0.1   9.0   NNE   0.75  17.0    NE    2.1    4.8    1.7  1032.1  0.00  0.00   0.046   0.000   28.7    23    5.5   27.2   4.91  .0738    117    1    100.0    5 
29/03/20   3:10    5.1    5.2    5.1    69   -0.2   9.0   NNE   0.75  16.0    NE    1.9    4.7    1.6  1032.1  0.00  0.00   0.046   0.000   28.6    23    5.4   27.1   4.91  .0738    117    1    100.0    5 
29/03/20   3:15    5.0    5.1    5.0    69   -0.2   9.0   NNE   0.75  17.0     E    1.8    4.7    1.5  1032.2  0.00  0.00   0.046   0.000   28.6    23    5.4   27.1   4.91  .0738    117    1    100.0    5 
29/03/20   3:20    4.9    5.0    4.9    70   -0.1   7.0   NNE   0.58  13.0   NNE    2.3    4.6    2.0  1032.2  0.00  0.00   0.046   0.000   28.6    23    5.4   27.1   4.91  .0738    117    1    100.0    5 
29/03/20   3:25    4.8    4.9    4.8    70   -0.2   9.0   NNE   0.75  14.0    NE    1.6    4.5    1.3  1032.2  0.00  0.00   0.047   0.000   28.6    23    5.4   27.1   4.91  .0738    116    1    100.0    5 
29/03/20   3:30    4.8    4.8    4.8    71   -0.0   7.0   NNE   0.58  15.0   ENE    2.1    4.4    1.8  1032.2  0.00  0.00   0.047   0.000   28.5    23    5.3   27.0   4.92  .0738    117    1    100.0    5 
29/03/20   3:35    4.7    4.8    4.7    71   -0.1  10.0   NNE   0.83  19.0   ENE    1.2    4.4    0.9  1032.2  0.00  0.00   0.047   0.000   28.5    23    5.3   27.0   4.92  .0738    117    1    100.0    5 
29/03/20   3:40    4.7    4.8    4.7    71   -0.1   8.0   NNE   0.67  13.0    NE    1.7    4.3    1.4  1032.2  0.00  0.00   0.047   0.000   28.4    23    5.3   26.9   4.92  .0738    116    1    100.0    5 
29/03/20   3:45    4.7    4.7    4.7    71   -0.1  10.0   NNE   0.83  17.0    NE    1.2    4.3    0.8  1032.2  0.00  0.00   0.047   0.000   28.4    23    5.3   26.9   4.92  .0738    117    1    100.0    5 
29/03/20   3:50    4.7    4.7    4.7    70   -0.3  10.0   NNE   0.83  19.0     E    1.2    4.4    0.9  1032.3  0.00  0.00   0.047   0.000   28.4    23    5.3   26.9   4.92  .0738    117    1    100.0    5 
29/03/20   3:55    4.8    4.8    4.7    68   -0.6  11.0   NNE   0.92  20.0   NNE    1.1    4.5    0.8  1032.3  0.00  0.00   0.047   0.000   28.4    23    5.3   26.8   4.93  .0738    116    1    100.0    5 
29/03/20   4:00    4.9    4.9    4.8    68   -0.5  11.0   NNE   0.92  21.0   ENE    1.3    4.6    0.9  1032.3  0.00  0.00   0.046   0.000   28.4    23    5.3   26.8   4.93  .0739    116    1    100.0    5 
29/03/20   4:05    4.9    4.9    4.8    68   -0.5   9.0   NNE   0.75  18.0   ENE    1.7    4.6    1.4  1032.3  0.00  0.00   0.047   0.000   28.4    23    5.3   26.8   4.93  .0739    116    1    100.0    5 
29/03/20   4:10    4.8    4.8    4.8    67   -0.8  10.0   NNE   0.83  21.0   ENE    1.3    4.4    0.9  1032.4  0.00  0.00   0.047   0.000   28.3    23    5.2   26.8   4.93  .0739    117    1    100.0    5 
29/03/20   4:15    4.8    4.8    4.8    67   -0.8   8.0   NNE   0.67  15.0   ENE    1.8    4.4    1.4  1032.4  0.00  0.00   0.047   0.000   28.3    23    5.2   26.8   4.93  .0739    116    1    100.0    5 
29/03/20   4:20    4.8    4.8    4.8    65   -1.3   8.0    NE   0.67  16.0    NE    1.8    4.4    1.4  1032.4  0.00  0.00   0.047   0.000   28.3    23    5.2   26.8   4.93  .0739    117    1    100.0    5 
29/03/20   4:25    4.7    4.8    4.7    64   -1.5   8.0    NE   0.67  15.0    NE    1.8    4.3    1.4  1032.5  0.00  0.00   0.047   0.000   28.3    23    5.2   26.7   4.93  .0739    116    1    100.0    5 
29/03/20   4:30    4.7    4.8    4.7    64   -1.5   8.0    NE   0.67  16.0   NNE    1.8    4.3    1.4  1032.4  0.00  0.00   0.047   0.000   28.3    23    5.2   26.7   4.93  .0739    115    1    100.0    5 
29/03/20   4:35    4.7    4.7    4.7    63   -1.7   7.0    NE   0.58  15.0   ENE    2.1    4.3    1.7  1032.4  0.00  0.00   0.047   0.000   28.2    23    5.1   26.7   4.94  .0739    117    1    100.0    5 
29/03/20   4:40    4.7    4.7    4.6    64   -1.6   7.0   NNE   0.58  13.0    NE    2.0    4.3    1.6  1032.4  0.00  0.00   0.047   0.000   28.2    23    5.1   26.7   4.94  .0739    117    1    100.0    5 
29/03/20   4:45    4.6    4.7    4.6    64   -1.7   7.0   NNE   0.58  15.0   NNE    1.8    4.2    1.4  1032.4  0.00  0.00   0.048   0.000   28.2    23    5.1   26.7   4.94  .0739    115    1    100.0    5 
29/03/20   4:50    4.5    4.6    4.5    65   -1.5   8.0    NE   0.67  14.0     E    1.5    4.1    1.1  1032.4  0.00  0.00   0.048   0.000   28.2    23    5.1   26.6   4.94  .0739    116    1    100.0    5 
29/03/20   4:55    4.4    4.5    4.4    65   -1.6   8.0   NNE   0.67  17.0   ENE    1.4    4.1    1.1  1032.4  0.00  0.00   0.048   0.000   28.2    23    5.1   26.6   4.94  .0739    117    1    100.0    5 
29/03/20   5:00    4.5    4.5    4.4    64   -1.7  10.0    NE   0.83  19.0     E    0.9    4.1    0.6  1032.3  0.00  0.00   0.048   0.000   28.1    23    5.0   26.6   4.95  .0739    117    1    100.0    5 
29/03/20   5:05    4.6    4.6    4.5    64   -1.7  10.0   NNE   0.83  19.0    NE    1.0    4.2    0.6  1032.3  0.00  0.00   0.048   0.000   28.1    23    5.0   26.6   4.95  .0739    116    1    100.0    5 
29/03/20   5:10    4.5    4.6    4.5    64   -1.7   8.0   NNE   0.67  19.0    NE    1.5    4.1    1.1  1032.2  0.00  0.00   0.048   0.000   28.1    23    5.0   26.6   4.95  .0739    117    1    100.0    5 
29/03/20   5:15    4.5    4.5    4.5    64   -1.7  10.0   NNE   0.83  16.0   ENE    0.9    4.1    0.6  1032.2  0.00  0.00   0.048   0.000   28.1    23    5.0   26.6   4.95  .0739    116    1    100.0    5 
29/03/20   5:20    4.5    4.5    4.4    64   -1.7  10.0   NNE   0.83  16.0     N    0.9    4.1    0.6  1032.2  0.00  0.00   0.048   0.000   28.1    23    5.0   26.6   4.95  .0739    116    1    100.0    5 
29/03/20   5:25    4.6    4.6    4.5    65   -1.5   9.0   NNE   0.75  17.0   ENE    1.3    4.2    0.9  1032.2  0.00  0.00   0.048   0.000   28.0    23    4.9   26.5   4.95  .0740    116    1    100.0    5 
29/03/20   5:30    4.7    4.7    4.6    64   -1.6  11.0   NNE   0.92  19.0    NE    0.9    4.3    0.6  1032.2  0.00  0.00   0.047   0.000   28.0    23    4.9   26.5   4.95  .0740    116    1    100.0    5 
29/03/20   5:35    4.7    4.7    4.7    64   -1.5   8.0   NNE   0.67  15.0   ENE    1.8    4.3    1.4  1032.3  0.00  0.00   0.047   0.000   27.9    23    4.9   26.4   4.96  .0740    116    1    100.0    5 
29/03/20   5:40    4.8    4.8    4.7    64   -1.5  11.0   NNE   0.92  18.0    NE    1.1    4.4    0.7  1032.3  0.00  0.00   0.047   0.000   27.9    23    4.9   26.4   4.96  .0740    117    1    100.0    5 
29/03/20   5:45    4.8    4.8    4.8    64   -1.5   9.0   NNE   0.75  20.0    NE    1.6    4.4    1.2  1032.3  0.00  0.00   0.047   0.000   27.9    23    4.9   26.4   4.96  .0740    117    1    100.0    5 
29/03/20   5:50    4.8    4.8    4.8    63   -1.7   9.0   NNE   0.75  18.0   NNE    1.6    4.4    1.2  1032.3  0.00  0.00   0.047   0.000   27.9    23    4.8   26.4   4.96  .0740    117    1    100.0    5 
29/03/20   5:55    4.8    4.8    4.8    63   -1.7  10.0   NNE   0.83  16.0   ENE    1.3    4.4    0.9  1032.2  0.00  0.00   0.047   0.000   27.8    23    4.8   26.3   4.97  .0740    117    1    100.0    5 
72102